createdAt,value
2023-03-02T01:53:17.846Z,1592.00
2023-03-02T02:03:17.755Z,1578.00
2023-03-02T02:04:17.835Z,1578.00
2023-03-02T02:05:17.895Z,1578.00
2023-03-02T02:06:18.036Z,1578.00
2023-03-02T02:07:18.020Z,1575.00
2023-03-02T02:08:18.147Z,1573.00
2023-03-02T02:09:18.145Z,1575.00
2023-03-02T02:10:18.211Z,1573.00
2023-03-02T02:11:18.276Z,1567.00
2023-03-02T02:43:20.206Z,1540.00
2023-03-02T05:32:28.013Z,1442.00
2023-03-02T06:06:27.725Z,1405.00
2023-03-02T06:07:27.764Z,1409.00
2023-03-02T06:08:27.810Z,1402.00
2023-03-02T06:09:27.859Z,1406.00
2023-03-02T06:10:27.897Z,1406.00
2023-03-02T06:11:27.946Z,1407.00
2023-03-02T06:12:27.976Z,1403.00
2023-03-02T06:13:28.013Z,1402.00
2023-03-02T06:14:28.079Z,1411.00
2023-03-02T06:15:28.096Z,1402.00
2023-03-02T06:16:28.223Z,1404.00
2023-03-02T06:17:28.178Z,1406.00
2023-03-02T06:18:28.266Z,1402.00
2023-03-02T06:19:28.248Z,1395.00
2023-03-02T06:20:28.284Z,1390.00
2023-03-02T06:21:28.389Z,1383.00
2023-03-02T06:22:28.371Z,1375.00
2023-03-02T06:23:28.402Z,1365.00
2023-03-02T06:24:29.439Z,1375.00
2023-03-02T06:25:28.476Z,1387.00
2023-03-02T06:26:28.512Z,1371.00
2023-03-02T06:27:28.512Z,1454.00
2023-03-02T06:28:28.526Z,1456.00
2023-03-02T06:29:28.602Z,1468.00
2023-03-02T06:30:28.708Z,1504.00
2023-03-02T06:31:28.856Z,1569.00
2023-03-02T06:32:28.905Z,1604.00
2023-03-02T06:33:29.412Z,1597.00
2023-03-02T06:34:28.958Z,1651.00
2023-03-02T06:36:29.096Z,1760.00
2023-03-02T06:37:29.872Z,1774.00
2023-03-02T06:38:29.057Z,1822.00
2023-03-02T06:39:29.062Z,1839.00
2023-03-02T06:40:29.072Z,1880.00
2023-03-02T06:41:29.066Z,1911.00
2023-03-02T06:42:29.418Z,1967.00
2023-03-02T06:43:29.064Z,1996.00
2023-03-02T06:44:29.054Z,2032.00
2023-03-02T06:45:29.054Z,2053.00
2023-03-02T06:46:29.042Z,2087.00
2023-03-02T06:47:30.205Z,2115.00
2023-03-02T06:48:29.024Z,2137.00
2023-03-02T06:49:29.018Z,2192.00
2023-03-02T06:50:28.996Z,2207.00
2023-03-02T06:51:29.040Z,2231.00
2023-03-02T06:52:28.980Z,2266.00
2023-03-02T06:53:28.959Z,2344.00
2023-03-02T06:54:28.947Z,2369.00
2023-03-02T06:55:28.955Z,2392.00
2023-03-02T06:56:28.935Z,2410.00
2023-03-02T06:57:28.916Z,2437.00
2023-03-02T06:58:28.910Z,2471.00
2023-03-02T06:59:28.912Z,2505.00
2023-03-02T07:00:28.928Z,2554.00
2023-03-02T07:01:28.908Z,2565.00
2023-03-02T07:02:28.889Z,2089.00
2023-03-02T07:03:28.927Z,1806.00
2023-03-02T07:04:28.882Z,1558.00
2023-03-02T07:05:28.869Z,1766.00
2023-03-02T07:06:28.873Z,2023.00
2023-03-02T07:07:28.884Z,2019.00
2023-03-02T07:08:28.877Z,1968.00
2023-03-02T07:09:28.869Z,2028.00
2023-03-02T07:10:28.856Z,2087.00
2023-03-02T07:11:28.867Z,2184.00
2023-03-02T07:12:28.873Z,2198.00
2023-03-02T07:13:28.941Z,2256.00
2023-03-02T07:14:28.860Z,2292.00
2023-03-02T07:15:28.860Z,2323.00
2023-03-02T07:16:28.898Z,2370.00
2023-03-02T07:17:28.853Z,2409.00
2023-03-02T07:18:28.846Z,2432.00
2023-03-02T07:19:28.848Z,2471.00
2023-03-02T07:20:28.844Z,2505.00
2023-03-02T07:21:28.831Z,2537.00
2023-03-02T07:22:28.830Z,2633.00
2023-03-02T07:23:28.820Z,2674.00
2023-03-02T07:24:28.801Z,2711.00
2023-03-02T07:25:28.793Z,2770.00
2023-03-02T07:26:31.430Z,2761.00
2023-03-02T07:27:29.020Z,2756.00
2023-03-02T07:28:29.027Z,2775.00
2023-03-02T07:29:29.021Z,2821.00
2023-03-02T07:30:29.063Z,2852.00
2023-03-02T07:31:29.970Z,2888.00
2023-03-02T07:32:29.196Z,2892.00
2023-03-02T07:33:29.192Z,2935.00
2023-03-02T07:34:29.239Z,2971.00
2023-03-02T07:35:29.342Z,3038.00
2023-03-02T07:36:29.322Z,3058.00
2023-03-02T07:37:29.384Z,3086.00
2023-03-02T07:39:29.458Z,3172.00
2023-03-02T07:40:29.522Z,3192.00
2023-03-02T07:41:29.542Z,3234.00
2023-03-02T07:42:29.627Z,3269.00
2023-03-02T07:43:29.654Z,3298.00
2023-03-02T07:44:29.706Z,3313.00
2023-03-02T07:45:29.761Z,3355.00
2023-03-02T07:46:29.895Z,3381.00
2023-03-02T07:47:29.935Z,3435.00
2023-03-02T07:48:29.888Z,3437.00
2023-03-02T07:49:29.937Z,3460.00
2023-03-02T07:50:30.016Z,3505.00
2023-03-02T07:51:30.216Z,3575.00
2023-03-02T07:52:30.122Z,3611.00
2023-03-02T07:53:30.143Z,3637.00
2023-03-02T07:54:30.191Z,3650.00
2023-03-02T07:55:30.221Z,3689.00
2023-03-02T07:56:30.281Z,3725.00
2023-03-02T07:57:30.351Z,3759.00
2023-03-02T07:58:30.396Z,3778.00
2023-03-02T07:59:30.438Z,3790.00
2023-03-02T08:00:30.492Z,3866.00
2023-03-02T08:01:30.882Z,3898.00
2023-03-02T08:02:30.609Z,3911.00
2023-03-02T08:03:30.711Z,3916.00
2023-03-02T08:04:30.705Z,3948.00
2023-03-02T08:05:30.746Z,3971.00
2023-03-02T08:06:30.804Z,4024.00
2023-03-02T08:07:30.834Z,4044.00
2023-03-02T08:08:30.888Z,4077.00
2023-03-02T08:09:30.946Z,4121.00
2023-03-02T08:10:31.943Z,4146.00
2023-03-02T08:11:31.410Z,4181.00
2023-03-02T08:12:31.092Z,4220.00
2023-03-02T08:13:31.145Z,4261.00
2023-03-02T08:14:31.185Z,4293.00
2023-03-02T08:15:31.223Z,4394.00
2023-03-02T08:16:31.344Z,4538.00
2023-03-02T08:17:32.866Z,4482.00
2023-03-02T08:18:31.338Z,4421.00
2023-03-02T08:19:31.380Z,4383.00
2023-03-02T08:20:31.466Z,4373.00
2023-03-02T08:21:31.873Z,4349.00
2023-03-02T08:22:31.530Z,4312.00
2023-03-02T08:23:31.580Z,4293.00
2023-03-02T08:24:31.589Z,4262.00
2023-03-02T08:26:32.445Z,4244.00
2023-03-02T08:27:31.745Z,4247.00
2023-03-02T08:28:31.800Z,4245.00
2023-03-02T08:29:31.726Z,4238.00
2023-03-02T08:30:32.489Z,4236.00
2023-03-02T08:31:33.151Z,4230.00
2023-03-02T08:32:32.763Z,4221.00
2023-03-02T08:33:31.727Z,4213.00
2023-03-02T08:34:32.370Z,4203.00
2023-03-02T08:35:31.740Z,4201.00
2023-03-02T08:36:32.069Z,4204.00
2023-03-02T08:37:31.699Z,4199.00
2023-03-02T08:38:31.695Z,4194.00
2023-03-02T08:39:31.682Z,4189.00
2023-03-02T08:40:31.671Z,4181.00
2023-03-02T08:41:32.175Z,4174.00
2023-03-02T08:42:31.665Z,4179.00
2023-03-02T08:43:31.644Z,4176.00
2023-03-02T08:44:31.637Z,4184.00
2023-03-02T08:45:32.499Z,4179.00
2023-03-02T08:46:31.612Z,4173.00
2023-03-02T08:47:31.624Z,4166.00
2023-03-02T08:48:31.623Z,4162.00
2023-03-02T08:49:31.608Z,4161.00
2023-03-02T08:50:31.612Z,4145.00
2023-03-02T08:51:31.955Z,4150.00
2023-03-02T08:52:31.569Z,4157.00
2023-03-02T08:53:31.574Z,4153.00
2023-03-02T08:54:31.572Z,4153.00
2023-03-02T08:55:31.742Z,4148.00
2023-03-02T08:56:31.871Z,4139.00
2023-03-02T08:57:31.567Z,4134.00
2023-03-02T08:58:31.561Z,4135.00
2023-03-02T08:59:31.562Z,4137.00
2023-03-02T09:00:31.822Z,4142.00
2023-03-02T09:01:32.224Z,4137.00
2023-03-02T09:02:31.587Z,4127.00
2023-03-02T09:03:32.378Z,4122.00
2023-03-02T09:04:31.692Z,4128.00
2023-03-02T09:05:31.557Z,4118.00
2023-03-02T09:06:31.783Z,4128.00
2023-03-02T09:07:31.579Z,4116.00
2023-03-02T09:09:31.548Z,4113.00
2023-03-02T09:10:31.589Z,4107.00
2023-03-02T09:11:31.978Z,4113.00
2023-03-02T09:12:32.464Z,4100.00
2023-03-02T09:13:31.744Z,3348.00
2023-03-02T09:14:31.832Z,2653.00
2023-03-02T09:15:31.893Z,2293.00
2023-03-02T09:16:31.951Z,2019.00
2023-03-02T09:17:31.918Z,2109.00
2023-03-02T09:18:31.955Z,2405.00
2023-03-02T09:19:32.010Z,2205.00
2023-03-02T09:20:32.119Z,2114.00
2023-03-02T09:21:32.492Z,1734.00
2023-03-02T09:22:32.309Z,1577.00
2023-03-02T09:23:32.420Z,1568.00
2023-03-02T09:24:32.447Z,1568.00
2023-03-02T09:25:32.472Z,1604.00
2023-03-02T09:26:32.496Z,1608.00
2023-03-02T09:27:32.573Z,1637.00
2023-03-02T09:28:32.611Z,1664.00
2023-03-02T09:29:32.707Z,1670.00
2023-03-02T09:30:32.801Z,1698.00
2023-03-02T09:31:33.287Z,1702.00
2023-03-02T09:33:32.965Z,1671.00
2023-03-02T09:34:33.031Z,1606.00
2023-03-02T09:35:33.116Z,1608.00
2023-03-02T09:36:33.181Z,1612.00
2023-03-02T09:37:33.262Z,1618.00
2023-03-02T09:38:33.328Z,1613.00
2023-03-02T09:39:33.400Z,1612.00
2023-03-02T09:40:33.473Z,1616.00
2023-03-02T09:41:33.843Z,1621.00
2023-03-02T09:42:43.446Z,1612.00
2023-03-02T09:43:34.615Z,1608.00
2023-03-02T09:44:33.686Z,1594.00
2023-03-02T09:45:33.649Z,1586.00
2023-03-02T09:46:33.609Z,1588.00
2023-03-02T09:47:36.071Z,1587.00
2023-03-02T09:48:33.856Z,1581.00
2023-03-02T09:49:34.100Z,1577.00
2023-03-02T09:50:33.999Z,1574.00
2023-03-02T09:51:35.141Z,1572.00
2023-03-02T09:52:34.093Z,1567.00
2023-03-02T09:53:34.158Z,1560.00
2023-03-02T09:54:34.277Z,1553.00
2023-03-02T09:55:34.275Z,1554.00
2023-03-02T09:56:34.626Z,1559.00
2023-03-02T09:57:34.382Z,1560.00
2023-03-02T09:58:34.444Z,1557.00
2023-03-02T09:59:34.509Z,1550.00
2023-03-02T10:00:34.568Z,1539.00
2023-03-02T10:01:34.640Z,1528.00
2023-03-02T10:02:34.752Z,1534.00
2023-03-02T10:03:34.851Z,1531.00
2023-03-02T10:04:35.422Z,1523.00
2023-03-02T10:05:34.873Z,1519.00
2023-03-02T10:06:35.133Z,1519.00
2023-03-02T10:07:35.023Z,1524.00
2023-03-02T10:08:35.074Z,1524.00
2023-03-02T10:09:35.141Z,1518.00
2023-03-02T10:10:35.202Z,1515.00
2023-03-02T10:11:35.258Z,1513.00
2023-03-02T10:12:35.329Z,1516.00
2023-03-02T10:13:35.396Z,1525.00
2023-03-02T10:14:35.470Z,1520.00
2023-03-02T10:15:35.533Z,1516.00
2023-03-02T10:16:36.053Z,1512.00
2023-03-02T10:19:35.829Z,1511.00
2023-03-02T10:38:37.990Z,1521.00
2023-03-02T10:40:37.976Z,1520.00
2023-03-02T10:45:38.480Z,1521.00
2023-03-02T10:48:40.903Z,1519.00
2023-03-02T10:49:37.716Z,1516.00
2023-03-02T10:50:37.724Z,1517.00
2023-03-02T10:51:37.732Z,1509.00
2023-03-02T10:52:37.738Z,1510.00
2023-03-02T10:53:37.757Z,1509.00
2023-03-02T10:54:37.758Z,1514.00
2023-03-02T10:55:37.767Z,1515.00
2023-03-02T10:56:37.764Z,1515.00
2023-03-02T10:57:38.493Z,1515.00
2023-03-02T10:58:37.766Z,1517.00
2023-03-02T10:59:37.767Z,1517.00
2023-03-02T11:00:37.777Z,1522.00
2023-03-02T11:01:37.813Z,1519.00
2023-03-02T11:02:37.805Z,1520.00
2023-03-02T11:03:37.786Z,1519.00
2023-03-02T11:04:37.853Z,1516.00
2023-03-02T11:05:37.801Z,1511.00
2023-03-02T11:06:37.793Z,1510.00
2023-03-02T11:07:38.051Z,1505.00
2023-03-02T11:08:37.809Z,1504.00
2023-03-02T11:09:37.815Z,1500.00
2023-03-02T11:10:37.807Z,1501.00
2023-03-02T11:11:38.289Z,1504.00
2023-03-02T11:12:37.819Z,1506.00
2023-03-02T11:13:37.819Z,1508.00
2023-03-02T11:14:37.827Z,1510.00
2023-03-02T11:15:37.890Z,1505.00
2023-03-02T11:16:37.829Z,1507.00
2023-03-02T11:17:37.826Z,1512.00
2023-03-02T11:18:37.838Z,1516.00
2023-03-02T11:19:37.912Z,1508.00
2023-03-02T11:20:38.018Z,1504.00
2023-03-02T11:21:38.042Z,1510.00
2023-03-02T11:22:38.105Z,1513.00
2023-03-02T11:23:38.194Z,1514.00
2023-03-02T11:24:38.243Z,1513.00
2023-03-02T11:25:38.311Z,1510.00
2023-03-02T11:26:38.378Z,1511.00
2023-03-02T11:27:38.448Z,1511.00
2023-03-02T11:28:38.529Z,1511.00
2023-03-02T11:29:39.489Z,1517.00
2023-03-02T11:30:38.652Z,1516.00
2023-03-02T11:31:38.735Z,1513.00
2023-03-02T11:32:38.861Z,1513.00
2023-03-02T11:33:38.875Z,1514.00
2023-03-02T11:34:38.912Z,1519.00
2023-03-02T11:35:39.068Z,1507.00
2023-03-02T11:36:39.040Z,1507.00
2023-03-02T11:37:39.099Z,1507.00
2023-03-02T11:38:39.169Z,1504.00
2023-03-02T11:39:46.477Z,1500.00
2023-03-02T11:40:42.667Z,1496.00
2023-03-02T11:41:39.299Z,1501.00
2023-03-02T11:42:39.325Z,1501.00
2023-03-02T11:43:39.229Z,1503.00
2023-03-02T11:44:39.235Z,1500.00
2023-03-02T11:45:39.242Z,1497.00
2023-03-02T11:46:39.261Z,1497.00
2023-03-02T11:47:39.285Z,1498.00
2023-03-02T11:48:39.244Z,1502.00
2023-03-02T11:49:39.350Z,1506.00
2023-03-02T11:50:39.240Z,1505.00
2023-03-02T11:51:47.136Z,1499.00
2023-03-02T11:52:40.236Z,1497.00
2023-03-02T11:53:39.282Z,1497.00
2023-03-02T11:54:39.235Z,1496.00
2023-03-02T11:55:39.242Z,1502.00
2023-03-02T11:56:39.300Z,1500.00
2023-03-02T11:57:39.920Z,1497.00
2023-03-02T11:58:39.252Z,1497.00
2023-03-02T11:59:39.245Z,1499.00
2023-03-02T12:00:39.308Z,1504.00
2023-03-02T12:01:39.430Z,1507.00
2023-03-02T12:02:39.416Z,1500.00
2023-03-02T12:04:39.539Z,1502.00
2023-03-02T12:05:39.668Z,1497.00
2023-03-02T12:06:39.769Z,1498.00
2023-03-02T12:07:39.767Z,1499.00
2023-03-02T12:08:39.901Z,1500.00
2023-03-02T12:09:39.895Z,1496.00
2023-03-02T12:10:39.969Z,1494.00
2023-03-02T12:11:40.047Z,1491.00
2023-03-02T12:12:40.109Z,1493.00
2023-03-02T12:47:42.474Z,1474.00
2023-03-02T12:48:42.763Z,1471.00
2023-03-02T12:49:42.376Z,1474.00
2023-03-02T12:50:42.422Z,1475.00
2023-03-02T12:51:42.543Z,1475.00
2023-03-02T12:52:42.526Z,1474.00
2023-03-02T12:53:42.534Z,1476.00
2023-03-02T12:54:42.664Z,1474.00
2023-03-02T12:55:42.756Z,1473.00
2023-03-02T12:56:42.743Z,1469.00
2023-03-02T13:24:44.155Z,1457.00
2023-03-02T13:25:44.178Z,1459.00
2023-03-02T13:26:44.181Z,1454.00
2023-03-02T13:27:44.311Z,1454.00
2023-03-02T13:28:44.241Z,1454.00
2023-03-02T13:29:44.348Z,1461.00
2023-03-02T13:30:44.514Z,1463.00
2023-03-02T13:31:44.578Z,1463.00
2023-03-02T13:32:44.655Z,1463.00
2023-03-02T13:33:44.748Z,1461.00
2023-03-02T13:36:44.870Z,1454.00
2023-03-02T14:52:48.044Z,1403.00
2023-03-02T15:01:47.800Z,1404.00
2023-03-02T15:02:47.903Z,1399.00
2023-03-02T15:03:47.785Z,1396.00
2023-03-02T15:06:00.238Z,1389.00
2023-03-02T15:07:47.892Z,1388.00
2023-03-02T15:08:47.901Z,1388.00
2023-03-02T15:09:47.901Z,1386.00
2023-03-02T15:11:47.908Z,1384.00
2023-03-02T15:22:48.047Z,1387.00
2023-03-02T15:23:48.116Z,1389.00
2023-03-02T15:24:48.108Z,1389.00
2023-03-02T15:25:48.142Z,1385.00
2023-03-02T15:26:48.570Z,1384.00
2023-03-02T15:27:48.199Z,1385.00
2023-03-02T15:28:48.218Z,1385.00
2023-03-02T15:29:48.237Z,1387.00
2023-03-02T15:30:48.268Z,1388.00
2023-03-02T15:31:48.309Z,1387.00
2023-03-02T15:34:48.394Z,1388.00
2023-03-02T15:40:48.704Z,1387.00
2023-03-02T15:41:48.722Z,1384.00
2023-03-02T15:42:48.745Z,1383.00
2023-03-02T15:43:48.767Z,1376.00
2023-03-02T15:44:48.794Z,1377.00
2023-03-02T15:45:48.888Z,1375.00
2023-03-02T15:46:48.976Z,1376.00
2023-03-02T15:47:48.950Z,1376.00
2023-03-02T15:48:48.975Z,1376.00
2023-03-02T15:50:49.082Z,1374.00
2023-03-02T15:59:49.380Z,1381.00
2023-03-02T16:00:49.443Z,1382.00
2023-03-02T16:01:49.452Z,1385.00
2023-03-02T16:02:49.538Z,1385.00
2023-03-02T16:03:49.515Z,1384.00
2023-03-02T16:04:50.068Z,1383.00
2023-03-02T16:06:49.613Z,1380.00
2023-03-02T16:07:49.664Z,1387.00
2023-03-02T16:08:49.759Z,1384.00
2023-03-02T16:09:49.765Z,1385.00
2023-03-02T16:10:49.779Z,1386.00
2023-03-02T16:11:49.827Z,1380.00
2023-03-02T16:12:49.867Z,1375.00
2023-03-02T16:13:49.883Z,1371.00
2023-03-02T16:14:50.596Z,1367.00
2023-03-02T16:15:50.009Z,1367.00
2023-03-02T16:16:50.065Z,1369.00
2023-03-02T16:17:50.003Z,1369.00
2023-03-02T16:18:50.062Z,1371.00
2023-03-02T16:19:50.069Z,1380.00
2023-03-02T16:20:50.201Z,1378.00
2023-03-02T16:21:50.155Z,1377.00
2023-03-02T16:22:50.171Z,1375.00
2023-03-02T16:23:50.219Z,1374.00
2023-03-02T16:24:50.256Z,1371.00
2023-03-02T16:25:50.276Z,1364.00
2023-03-02T16:26:50.317Z,1361.00
2023-03-02T16:27:50.354Z,1362.00
2023-03-02T16:28:50.399Z,1366.00
2023-03-02T16:29:50.425Z,1376.00
2023-03-02T16:30:50.466Z,1372.00
2023-03-02T16:31:50.504Z,1375.00
2023-03-02T16:32:50.535Z,1374.00
2023-03-02T16:33:50.563Z,1371.00
2023-03-02T16:34:50.707Z,1367.00
2023-03-02T16:35:50.649Z,1368.00
2023-03-02T16:36:50.694Z,1366.00
2023-03-02T16:37:50.734Z,1368.00
2023-03-02T16:38:50.811Z,1368.00
2023-03-02T16:39:51.086Z,1368.00
2023-03-02T16:40:50.854Z,1367.00
2023-03-02T16:41:50.952Z,1367.00
2023-03-02T16:42:50.952Z,1371.00
2023-03-02T16:43:50.994Z,1370.00
2023-03-02T16:44:51.034Z,1369.00
2023-03-02T16:45:51.099Z,1367.00
2023-03-02T16:46:51.119Z,1364.00
2023-03-02T16:47:51.159Z,1369.00
2023-03-02T16:48:51.214Z,1377.00
2023-03-02T16:49:51.238Z,1375.00
2023-03-02T16:50:51.280Z,1376.00
2023-03-02T16:51:51.306Z,1376.00
2023-03-02T16:52:51.357Z,1374.00
2023-03-02T16:53:51.400Z,1374.00
2023-03-02T16:54:51.445Z,1376.00
2023-03-02T16:55:51.475Z,1376.00
2023-03-02T16:56:51.523Z,1379.00
2023-03-02T16:57:51.542Z,1385.00
2023-03-02T16:58:51.597Z,1387.00
2023-03-02T16:59:51.631Z,1387.00
2023-03-02T17:00:52.049Z,1388.00
2023-03-02T17:01:51.784Z,1385.00
2023-03-02T17:02:51.806Z,1379.00
2023-03-02T17:03:51.916Z,1370.00
2023-03-02T17:04:51.888Z,1370.00
2023-03-02T17:05:51.930Z,1369.00
2023-03-02T17:07:00.625Z,1364.00
2023-03-02T17:07:52.991Z,1365.00
2023-03-02T17:08:52.018Z,1367.00
2023-03-02T17:09:52.016Z,1367.00
2023-03-02T17:10:52.041Z,1368.00
2023-03-02T17:11:52.045Z,1363.00
2023-03-02T17:12:52.057Z,1362.00
2023-03-02T17:13:52.067Z,1360.00
2023-03-02T17:14:52.154Z,1361.00
2023-03-02T17:15:52.111Z,1361.00
2023-03-02T17:16:52.129Z,1359.00
2023-03-02T17:17:52.134Z,1359.00
2023-03-02T17:18:52.155Z,1358.00
2023-03-02T17:19:52.175Z,1364.00
2023-03-02T17:20:52.199Z,1366.00
2023-03-02T17:21:52.201Z,1364.00
2023-03-02T17:22:52.205Z,1361.00
2023-03-02T17:23:52.217Z,1362.00
2023-03-02T17:24:52.239Z,1366.00
2023-03-02T17:25:52.249Z,1362.00
2023-03-02T17:26:52.258Z,1362.00
2023-03-02T17:27:52.292Z,1364.00
2023-03-02T17:28:52.297Z,1367.00
2023-03-02T17:29:52.401Z,1367.00
2023-03-02T17:30:52.431Z,1363.00
2023-03-02T17:31:52.500Z,1366.00
2023-03-02T17:32:52.480Z,1366.00
2023-03-02T17:33:52.508Z,1357.00
2023-03-02T17:34:52.570Z,1359.00
2023-03-02T17:35:52.597Z,1359.00
2023-03-02T17:36:52.725Z,1362.00
2023-03-02T17:37:52.718Z,1361.00
2023-03-02T17:38:52.744Z,1356.00
2023-03-02T17:39:52.840Z,1355.00
2023-03-02T17:40:52.821Z,1358.00
2023-03-02T17:41:52.880Z,1351.00
2023-03-02T17:42:55.395Z,1347.00
2023-03-02T17:43:52.940Z,1348.00
2023-03-02T17:44:52.950Z,1355.00
2023-03-02T17:45:52.984Z,1354.00
2023-03-02T17:46:52.969Z,1356.00
2023-03-02T17:47:52.994Z,1355.00
2023-03-02T17:48:54.155Z,1359.00
2023-03-02T17:49:53.619Z,1359.00
2023-03-02T17:50:53.105Z,1359.00
2023-03-02T17:51:53.020Z,1359.00
2023-03-02T17:52:53.028Z,1358.00
2023-03-02T17:53:53.039Z,1355.00
2023-03-02T17:54:54.133Z,1356.00
2023-03-02T17:55:53.058Z,1356.00
2023-03-02T17:56:53.070Z,1360.00
2023-03-02T17:57:53.072Z,1362.00
2023-03-02T17:58:53.096Z,1359.00
2023-03-02T17:59:53.088Z,1357.00
2023-03-02T18:00:54.073Z,1353.00
2023-03-02T18:01:53.112Z,1353.00
2023-03-02T18:02:53.181Z,1353.00
2023-03-02T18:03:53.134Z,1351.00
2023-03-02T18:04:53.126Z,1352.00
2023-03-02T18:05:53.128Z,1354.00
2023-03-02T18:06:54.156Z,1356.00
2023-03-02T18:07:53.145Z,1355.00
2023-03-02T18:08:53.180Z,1355.00
2023-03-02T18:09:53.612Z,1358.00
2023-03-02T18:10:53.164Z,1352.00
2023-03-02T18:11:53.169Z,1354.00
2023-03-02T18:12:54.409Z,1350.00
2023-03-02T18:13:53.193Z,1350.00
2023-03-02T18:14:53.222Z,1351.00
2023-03-02T18:15:53.223Z,1354.00
2023-03-02T18:16:53.201Z,1350.00
2023-03-02T18:17:53.218Z,1348.00
2023-03-02T18:18:54.230Z,1348.00
2023-03-02T18:19:53.244Z,1350.00
2023-03-02T18:20:53.289Z,1356.00
2023-03-02T18:21:53.320Z,1355.00
2023-03-02T18:22:53.371Z,1351.00
2023-03-02T18:23:53.416Z,1351.00
2023-03-02T18:24:53.466Z,1350.00
2023-03-02T18:25:53.520Z,1348.00
2023-03-02T18:26:53.567Z,1348.00
2023-03-02T18:27:54.142Z,1347.00
2023-03-02T18:28:53.661Z,1348.00
2023-03-02T18:29:53.703Z,1344.00
2023-03-02T18:30:53.759Z,1346.00
2023-03-02T18:31:53.867Z,1349.00
2023-03-02T18:32:53.863Z,1351.00
2023-03-02T18:33:53.902Z,1350.00
2023-03-02T18:34:53.960Z,1349.00
2023-03-02T18:35:54.006Z,1348.00
2023-03-02T18:36:54.052Z,1345.00
2023-03-02T18:37:54.135Z,1345.00
2023-03-02T18:38:54.158Z,1343.00
2023-03-02T18:39:54.207Z,1343.00
2023-03-02T18:40:54.245Z,1343.00
2023-03-02T18:41:54.298Z,1351.00
2023-03-02T18:42:54.343Z,1352.00
2023-03-02T18:43:54.401Z,1349.00
2023-03-02T18:44:54.490Z,1344.00
2023-03-02T18:45:54.477Z,1346.00
2023-03-02T18:46:54.683Z,1346.00
2023-03-02T18:47:54.577Z,1346.00
2023-03-02T18:48:54.627Z,1344.00
2023-03-02T18:49:54.673Z,1349.00
2023-03-02T18:50:54.722Z,1353.00
2023-03-02T18:51:54.777Z,1351.00
2023-03-02T18:52:54.814Z,1349.00
2023-03-02T18:53:54.871Z,1337.00
2023-03-02T18:54:54.916Z,1342.00
2023-03-02T18:55:54.955Z,1349.00
2023-03-02T18:56:55.005Z,1352.00
2023-03-02T18:57:55.076Z,1355.00
2023-03-02T18:58:55.120Z,1354.00
2023-03-02T18:59:55.161Z,1355.00
2023-03-02T19:00:55.238Z,1357.00
2023-03-02T19:01:55.299Z,1357.00
2023-03-02T19:02:55.308Z,1350.00
2023-03-02T19:03:55.346Z,1348.00
2023-03-02T19:04:55.420Z,1343.00
2023-03-02T19:05:57.942Z,1339.00
2023-03-02T19:06:55.454Z,1337.00
2023-03-02T19:07:55.464Z,1340.00
2023-03-02T19:08:55.490Z,1341.00
2023-03-02T19:09:55.491Z,1337.00
2023-03-02T19:10:55.532Z,1343.00
2023-03-02T19:11:55.517Z,1346.00
2023-03-02T19:12:55.531Z,1344.00
2023-03-02T19:13:55.615Z,1343.00
2023-03-02T20:37:57.732Z,1321.00
2023-03-02T20:38:57.774Z,1320.00
2023-03-02T20:39:57.833Z,1326.00
2023-03-02T20:40:57.931Z,1329.00
2023-03-02T20:41:57.920Z,1324.00
2023-03-02T20:42:57.978Z,1323.00
2023-03-02T20:43:58.024Z,1326.00
2023-03-02T20:44:58.132Z,1326.00
2023-03-02T20:45:58.175Z,1327.00
2023-03-02T20:46:58.169Z,1326.00
2023-03-02T20:47:58.223Z,1326.00
2023-03-02T20:48:58.276Z,1320.00
2023-03-02T20:49:58.322Z,1318.00
2023-03-02T20:50:58.363Z,1318.00
2023-03-02T20:51:58.429Z,1319.00
2023-03-02T20:52:59.137Z,1321.00
2023-03-02T20:53:58.525Z,1324.00
2023-03-02T20:54:58.565Z,1320.00
2023-03-02T20:55:58.620Z,1321.00
2023-03-02T20:56:59.156Z,1320.00
2023-03-02T20:57:58.719Z,1319.00
2023-03-02T20:58:58.773Z,1319.00
2023-03-02T20:59:58.831Z,1323.00
2023-03-02T21:00:58.945Z,1322.00
2023-03-02T21:01:58.935Z,1322.00
2023-03-02T21:02:58.973Z,1322.00
2023-03-02T21:03:59.972Z,1324.00
2023-03-02T21:04:59.051Z,1321.00
2023-03-02T21:05:59.067Z,1317.00
2023-03-02T21:06:58.985Z,1318.00
2023-03-02T21:07:59.005Z,1317.00
2023-03-02T21:08:59.016Z,1317.00
2023-03-02T21:09:59.026Z,1318.00
2023-03-02T21:10:59.012Z,1318.00
2023-03-02T21:11:59.025Z,1318.00
2023-03-02T21:12:59.057Z,1315.00
2023-03-02T22:37:03.505Z,1287.00
2023-03-02T22:38:03.514Z,1289.00
2023-03-02T22:39:03.576Z,1282.00
2023-03-02T22:40:03.629Z,1280.00
2023-03-02T22:41:03.694Z,1281.00
2023-03-02T22:42:03.747Z,1281.00
2023-03-02T22:43:03.800Z,1281.00
2023-03-02T22:44:03.846Z,1285.00
2023-03-02T22:45:03.904Z,1283.00
2023-03-02T22:46:03.954Z,1281.00
2023-03-02T22:47:04.007Z,1279.00
2023-03-02T22:48:04.081Z,1271.00
2023-03-02T22:49:04.136Z,1268.00
2023-03-02T22:50:04.190Z,1266.00
2023-03-02T22:51:04.244Z,1272.00
2023-03-02T22:52:04.286Z,1273.00
2023-03-02T22:53:04.371Z,1276.00
2023-03-02T22:54:04.462Z,1278.00
2023-03-02T22:55:04.507Z,1280.00
2023-03-02T22:56:04.517Z,1279.00
2023-03-02T22:57:04.576Z,1278.00
2023-03-02T22:58:04.644Z,1272.00
2023-03-02T22:59:04.689Z,1272.00
2023-03-02T23:00:04.751Z,1273.00
2023-03-02T23:01:04.918Z,1275.00
2023-03-02T23:02:04.854Z,1276.00
2023-03-02T23:03:04.915Z,1276.00
2023-03-02T23:04:05.078Z,1277.00
2023-03-02T23:05:05.026Z,1274.00
2023-03-02T23:06:05.086Z,1271.00
2023-03-02T23:07:05.143Z,1272.00
2023-03-02T23:08:05.204Z,1272.00
2023-03-02T23:09:05.257Z,1271.00
2023-03-02T23:10:05.310Z,1271.00
2023-03-02T23:11:05.432Z,1267.00
2023-03-02T23:12:05.420Z,1265.00
2023-03-02T23:13:05.483Z,1261.00
2023-03-02T23:14:05.531Z,1264.00
2023-03-02T23:15:05.603Z,1265.00
2023-03-02T23:16:05.671Z,1261.00
2023-03-02T23:17:05.698Z,1267.00
2023-03-02T23:18:05.758Z,1267.00
2023-03-02T23:19:05.817Z,1269.00
2023-03-02T23:20:05.861Z,1268.00
2023-03-02T23:21:05.906Z,1268.00
2023-03-02T23:22:05.966Z,1266.00
2023-03-02T23:23:06.026Z,1270.00
2023-03-02T23:24:06.069Z,1266.00
2023-03-02T23:25:06.132Z,1265.00
2023-03-02T23:26:06.198Z,1267.00
2023-03-02T23:27:06.251Z,1263.00
2023-03-02T23:28:06.305Z,1262.00
2023-03-02T23:29:06.380Z,1259.00
2023-03-02T23:30:06.417Z,1261.00
2023-03-02T23:31:06.562Z,1258.00
2023-03-02T23:32:06.655Z,1256.00
2023-03-02T23:33:06.588Z,1260.00
2023-03-02T23:34:06.662Z,1259.00
2023-03-02T23:35:06.697Z,1259.00
2023-03-02T23:36:06.831Z,1260.00
2023-03-02T23:37:06.817Z,1256.00
2023-03-02T23:38:06.890Z,1257.00
2023-03-02T23:39:06.936Z,1259.00
2023-03-02T23:40:06.995Z,1261.00
2023-03-02T23:41:07.046Z,1263.00
2023-03-02T23:42:07.123Z,1264.00
2023-03-02T23:43:07.151Z,1260.00
2023-03-02T23:44:07.219Z,1260.00
2023-03-02T23:45:07.273Z,1260.00
2023-03-02T23:46:07.339Z,1262.00
2023-03-02T23:47:07.404Z,1261.00
2023-03-02T23:48:07.435Z,1261.00
2023-03-02T23:49:08.201Z,1261.00
2023-03-02T23:50:07.553Z,1258.00
2023-03-02T23:51:08.186Z,1253.00
2023-03-02T23:52:07.684Z,1251.00
2023-03-02T23:53:07.714Z,1254.00
2023-03-02T23:54:07.784Z,1255.00
2023-03-02T23:55:07.850Z,1248.00
2023-03-02T23:56:07.907Z,1244.00
2023-03-02T23:57:07.977Z,1245.00
2023-03-02T23:58:08.034Z,1243.00
2023-03-02T23:59:08.071Z,1253.00
